sensor_id;sensor_type;location;lat;lon;timestamp;P1;durP1;ratioP1;P2;durP2;ratioP2
9364;SDS011;4722;49.340;9.800;2023-08-01T00:00:17;5.78;;;1.60;;
9364;SDS011;4722;49.340;9.800;2023-08-01T00:02:44;7.38;;;1.65;;
9364;SDS011;4722;49.340;9.800;2023-08-01T00:05:10;4.05;;;2.30;;
9364;SDS011;4722;49.340;9.800;2023-08-01T00:07:36;3.17;;;1.58;;
9364;SDS011;4722;49.340;9.800;2023-08-01T00:10:02;6.85;;;1.27;;
9364;SDS011;4722;49.340;9.800;2023-08-01T00:12:28;6.40;;;1.70;;
9364;SDS011;4722;49.340;9.800;2023-08-01T00:14:54;5.47;;;1.23;;
9364;SDS011;4722;49.340;9.800;2023-08-01T00:17:20;5.15;;;1.88;;
9364;SDS011;4722;49.340;9.800;2023-08-01T00:19:46;4.28;;;1.90;;
9364;SDS011;4722;49.340;9.800;2023-08-01T00:22:12;4.63;;;1.95;;
9364;SDS011;4722;49.340;9.800;2023-08-01T00:24:38;2.40;;;1.38;;
9364;SDS011;4722;49.340;9.800;2023-08-01T00:27:04;5.10;;;2.13;;
9364;SDS011;4722;49.340;9.800;2023-08-01T00:29:30;2.15;;;1.05;;
9364;SDS011;4722;49.340;9.800;2023-08-01T00:31:56;4.57;;;1.45;;
9364;SDS011;4722;49.340;9.800;2023-08-01T00:34:22;6.93;;;1.15;;
9364;SDS011;4722;49.340;9.800;2023-08-01T00:36:47;3.92;;;1.67;;
9364;SDS011;4722;49.340;9.800;2023-08-01T00:39:15;3.40;;;1.38;;
9364;SDS011;4722;49.340;9.800;2023-08-01T00:41:40;4.00;;;1.27;;
9364;SDS011;4722;49.340;9.800;2023-08-01T00:44:06;4.28;;;1.70;;
9364;SDS011;4722;49.340;9.800;2023-08-01T00:49:18;7.13;;;1.48;;
9364;SDS011;4722;49.340;9.800;2023-08-01T00:51:44;7.60;;;2.05;;
9364;SDS011;4722;49.340;9.800;2023-08-01T00:54:10;3.72;;;1.55;;
9364;SDS011;4722;49.340;9.800;2023-08-01T00:56:36;4.60;;;1.88;;
9364;SDS011;4722;49.340;9.800;2023-08-01T00:59:02;3.55;;;1.60;;
9364;SDS011;4722;49.340;9.800;2023-08-01T01:01:28;4.50;;;2.25;;
9364;SDS011;4722;49.340;9.800;2023-08-01T01:03:55;2.65;;;1.38;;
9364;SDS011;4722;49.340;9.800;2023-08-01T01:06:28;4.53;;;1.17;;
9364;SDS011;4722;49.340;9.800;2023-08-01T01:09:02;8.88;;;1.73;;
9364;SDS011;4722;49.340;9.800;2023-08-01T01:11:29;3.92;;;1.70;;
9364;SDS011;4722;49.340;9.800;2023-08-01T01:13:56;4.57;;;1.48;;
9364;SDS011;4722;49.340;9.800;2023-08-01T01:16:22;4.78;;;1.35;;
9364;SDS011;4722;49.340;9.800;2023-08-01T01:18:48;4.90;;;2.05;;
9364;SDS011;4722;49.340;9.800;2023-08-01T01:21:14;3.92;;;1.35;;
9364;SDS011;4722;49.340;9.800;2023-08-01T01:23:40;2.85;;;1.52;;
9364;SDS011;4722;49.340;9.800;2023-08-01T01:26:06;2.97;;;1.23;;
9364;SDS011;4722;49.340;9.800;2023-08-01T01:28:34;5.22;;;2.03;;
9364;SDS011;4722;49.340;9.800;2023-08-01T01:31:03;4.57;;;2.08;;
9364;SDS011;4722;49.340;9.800;2023-08-01T01:33:29;6.00;;;1.50;;
9364;SDS011;4722;49.340;9.800;2023-08-01T01:38:47;4.47;;;1.60;;
9364;SDS011;4722;49.340;9.800;2023-08-01T01:41:12;5.63;;;1.73;;
9364;SDS011;4722;49.340;9.800;2023-08-01T01:43:38;3.53;;;1.63;;
9364;SDS011;4722;49.340;9.800;2023-08-01T01:46:04;4.90;;;1.60;;
9364;SDS011;4722;49.340;9.800;2023-08-01T01:48:30;3.00;;;1.50;;
9364;SDS011;4722;49.340;9.800;2023-08-01T01:50:56;4.82;;;1.42;;
9364;SDS011;4722;49.340;9.800;2023-08-01T01:53:22;2.65;;;1.55;;
9364;SDS011;4722;49.340;9.800;2023-08-01T01:55:48;5.03;;;1.80;;
9364;SDS011;4722;49.340;9.800;2023-08-01T01:58:14;5.22;;;1.73;;
9364;SDS011;4722;49.340;9.800;2023-08-01T02:00:39;5.43;;;1.75;;
9364;SDS011;4722;49.340;9.800;2023-08-01T02:03:05;4.07;;;1.58;;
9364;SDS011;4722;49.340;9.800;2023-08-01T02:05:35;3.50;;;1.45;;
9364;SDS011;4722;49.340;9.800;2023-08-01T02:08:01;4.18;;;1.30;;
9364;SDS011;4722;49.340;9.800;2023-08-01T02:10:29;4.57;;;1.40;;
9364;SDS011;4722;49.340;9.800;2023-08-01T02:12:55;5.53;;;1.98;;
9364;SDS011;4722;49.340;9.800;2023-08-01T02:15:21;3.45;;;1.60;;
9364;SDS011;4722;49.340;9.800;2023-08-01T02:17:47;3.22;;;1.20;;
9364;SDS011;4722;49.340;9.800;2023-08-01T02:20:14;3.88;;;1.60;;
9364;SDS011;4722;49.340;9.800;2023-08-01T02:22:40;5.78;;;1.75;;
9364;SDS011;4722;49.340;9.800;2023-08-01T02:25:06;4.40;;;1.73;;
9364;SDS011;4722;49.340;9.800;2023-08-01T02:27:31;2.13;;;1.25;;
9364;SDS011;4722;49.340;9.800;2023-08-01T02:29:57;6.95;;;1.73;;
9364;SDS011;4722;49.340;9.800;2023-08-01T02:32:23;9.93;;;1.60;;
9364;SDS011;4722;49.340;9.800;2023-08-01T02:34:49;2.97;;;1.48;;
9364;SDS011;4722;49.340;9.800;2023-08-01T02:37:15;5.25;;;2.22;;
9364;SDS011;4722;49.340;9.800;2023-08-01T02:39:41;6.28;;;1.73;;
9364;SDS011;4722;49.340;9.800;2023-08-01T02:42:07;4.18;;;2.20;;
9364;SDS011;4722;49.340;9.800;2023-08-01T02:44:33;7.88;;;2.08;;
9364;SDS011;4722;49.340;9.800;2023-08-01T02:47:00;5.10;;;1.70;;
9364;SDS011;4722;49.340;9.800;2023-08-01T02:49:25;4.90;;;1.23;;
9364;SDS011;4722;49.340;9.800;2023-08-01T02:51:51;5.50;;;1.58;;
9364;SDS011;4722;49.340;9.800;2023-08-01T02:54:17;6.72;;;1.40;;
9364;SDS011;4722;49.340;9.800;2023-08-01T02:56:43;4.45;;;1.77;;
9364;SDS011;4722;49.340;9.800;2023-08-01T02:59:09;3.08;;;1.42;;
9364;SDS011;4722;49.340;9.800;2023-08-01T03:01:36;2.30;;;1.13;;
9364;SDS011;4722;49.340;9.800;2023-08-01T03:04:02;3.63;;;1.52;;
9364;SDS011;4722;49.340;9.800;2023-08-01T03:06:28;4.15;;;1.33;;
9364;SDS011;4722;49.340;9.800;2023-08-01T03:08:54;2.63;;;1.15;;
9364;SDS011;4722;49.340;9.800;2023-08-01T03:11:20;4.30;;;1.45;;
9364;SDS011;4722;49.340;9.800;2023-08-01T03:13:46;6.93;;;1.50;;
9364;SDS011;4722;49.340;9.800;2023-08-01T03:16:12;3.00;;;1.33;;
9364;SDS011;4722;49.340;9.800;2023-08-01T03:18:38;4.82;;;1.90;;
9364;SDS011;4722;49.340;9.800;2023-08-01T03:21:05;4.97;;;1.63;;
9364;SDS011;4722;49.340;9.800;2023-08-01T03:23:31;3.53;;;1.20;;
9364;SDS011;4722;49.340;9.800;2023-08-01T03:25:57;6.93;;;1.55;;
9364;SDS011;4722;49.340;9.800;2023-08-01T03:28:23;4.22;;;1.70;;
9364;SDS011;4722;49.340;9.800;2023-08-01T03:30:51;5.53;;;1.95;;
9364;SDS011;4722;49.340;9.800;2023-08-01T03:33:18;4.13;;;1.65;;
9364;SDS011;4722;49.340;9.800;2023-08-01T03:35:44;3.25;;;1.30;;
9364;SDS011;4722;49.340;9.800;2023-08-01T03:38:10;3.28;;;1.45;;
9364;SDS011;4722;49.340;9.800;2023-08-01T03:40:36;2.70;;;1.25;;
9364;SDS011;4722;49.340;9.800;2023-08-01T03:43:02;6.85;;;2.00;;
9364;SDS011;4722;49.340;9.800;2023-08-01T03:45:28;8.65;;;1.35;;
9364;SDS011;4722;49.340;9.800;2023-08-01T03:47:54;4.70;;;1.85;;
9364;SDS011;4722;49.340;9.800;2023-08-01T03:50:20;8.45;;;1.73;;
9364;SDS011;4722;49.340;9.800;2023-08-01T03:52:46;6.10;;;1.20;;
9364;SDS011;4722;49.340;9.800;2023-08-01T03:55:12;7.03;;;1.80;;
9364;SDS011;4722;49.340;9.800;2023-08-01T03:57:38;5.15;;;1.77;;
9364;SDS011;4722;49.340;9.800;2023-08-01T04:00:05;5.30;;;1.48;;
9364;SDS011;4722;49.340;9.800;2023-08-01T04:02:38;3.63;;;1.27;;
9364;SDS011;4722;49.340;9.800;2023-08-01T04:05:04;5.50;;;2.10;;
9364;SDS011;4722;49.340;9.800;2023-08-01T04:07:30;5.00;;;1.23;;
9364;SDS011;4722;49.340;9.800;2023-08-01T04:09:56;6.45;;;2.05;;
9364;SDS011;4722;49.340;9.800;2023-08-01T04:12:22;6.18;;;1.67;;
9364;SDS011;4722;49.340;9.800;2023-08-01T04:14:48;5.97;;;1.42;;
9364;SDS011;4722;49.340;9.800;2023-08-01T04:17:15;3.05;;;1.40;;
9364;SDS011;4722;49.340;9.800;2023-08-01T04:19:41;6.13;;;1.70;;
9364;SDS011;4722;49.340;9.800;2023-08-01T04:22:07;7.13;;;2.17;;
9364;SDS011;4722;49.340;9.800;2023-08-01T04:24:34;5.72;;;1.38;;
9364;SDS011;4722;49.340;9.800;2023-08-01T04:27:00;4.32;;;1.95;;
9364;SDS011;4722;49.340;9.800;2023-08-01T04:29:26;4.00;;;1.52;;
9364;SDS011;4722;49.340;9.800;2023-08-01T04:31:55;5.63;;;1.30;;
9364;SDS011;4722;49.340;9.800;2023-08-01T04:34:21;3.00;;;1.48;;
9364;SDS011;4722;49.340;9.800;2023-08-01T04:36:46;4.57;;;1.65;;
9364;SDS011;4722;49.340;9.800;2023-08-01T04:39:12;3.42;;;1.30;;
9364;SDS011;4722;49.340;9.800;2023-08-01T04:41:38;3.70;;;1.65;;
9364;SDS011;4722;49.340;9.800;2023-08-01T04:44:04;3.25;;;1.05;;
9364;SDS011;4722;49.340;9.800;2023-08-01T04:46:31;4.90;;;2.03;;
9364;SDS011;4722;49.340;9.800;2023-08-01T04:48:57;5.85;;;1.60;;
9364;SDS011;4722;49.340;9.800;2023-08-01T04:51:24;2.40;;;1.42;;
9364;SDS011;4722;49.340;9.800;2023-08-01T04:53:50;4.43;;;1.45;;
9364;SDS011;4722;49.340;9.800;2023-08-01T04:56:16;3.15;;;1.38;;
9364;SDS011;4722;49.340;9.800;2023-08-01T04:58:42;3.05;;;1.33;;
9364;SDS011;4722;49.340;9.800;2023-08-01T05:01:08;3.40;;;1.42;;
9364;SDS011;4722;49.340;9.800;2023-08-01T05:03:34;4.88;;;1.60;;
9364;SDS011;4722;49.340;9.800;2023-08-01T05:06:00;5.45;;;2.30;;
9364;SDS011;4722;49.340;9.800;2023-08-01T05:08:26;4.15;;;1.27;;
9364;SDS011;4722;49.340;9.800;2023-08-01T05:10:51;4.32;;;1.45;;
9364;SDS011;4722;49.340;9.800;2023-08-01T05:13:18;4.00;;;1.70;;
9364;SDS011;4722;49.340;9.800;2023-08-01T05:15:44;3.67;;;1.63;;
9364;SDS011;4722;49.340;9.800;2023-08-01T05:18:12;2.88;;;1.65;;
9364;SDS011;4722;49.340;9.800;2023-08-01T05:20:38;4.05;;;1.50;;
9364;SDS011;4722;49.340;9.800;2023-08-01T05:23:04;2.50;;;1.20;;
9364;SDS011;4722;49.340;9.800;2023-08-01T05:25:30;5.75;;;2.20;;
9364;SDS011;4722;49.340;9.800;2023-08-01T05:27:57;3.28;;;1.48;;
9364;SDS011;4722;49.340;9.800;2023-08-01T05:30:24;3.35;;;1.20;;
9364;SDS011;4722;49.340;9.800;2023-08-01T05:32:50;4.82;;;1.40;;
9364;SDS011;4722;49.340;9.800;2023-08-01T05:35:16;6.80;;;1.40;;
9364;SDS011;4722;49.340;9.800;2023-08-01T05:37:42;5.65;;;2.03;;
9364;SDS011;4722;49.340;9.800;2023-08-01T05:40:08;4.85;;;2.53;;
9364;SDS011;4722;49.340;9.800;2023-08-01T05:42:34;6.15;;;1.60;;
9364;SDS011;4722;49.340;9.800;2023-08-01T05:45:00;3.13;;;1.20;;
9364;SDS011;4722;49.340;9.800;2023-08-01T05:47:29;3.72;;;1.55;;
9364;SDS011;4722;49.340;9.800;2023-08-01T05:49:55;3.22;;;1.58;;
9364;SDS011;4722;49.340;9.800;2023-08-01T05:52:20;4.20;;;1.50;;
9364;SDS011;4722;49.340;9.800;2023-08-01T05:54:46;3.58;;;1.58;;
9364;SDS011;4722;49.340;9.800;2023-08-01T05:57:12;2.80;;;1.40;;
9364;SDS011;4722;49.340;9.800;2023-08-01T05:59:38;4.70;;;2.08;;
9364;SDS011;4722;49.340;9.800;2023-08-01T06:02:04;5.68;;;1.90;;
9364;SDS011;4722;49.340;9.800;2023-08-01T06:04:31;4.15;;;1.40;;
9364;SDS011;4722;49.340;9.800;2023-08-01T06:06:57;9.02;;;1.50;;
9364;SDS011;4722;49.340;9.800;2023-08-01T06:09:24;3.40;;;1.83;;
9364;SDS011;4722;49.340;9.800;2023-08-01T06:11:50;4.38;;;1.10;;
9364;SDS011;4722;49.340;9.800;2023-08-01T06:14:16;3.70;;;1.20;;
9364;SDS011;4722;49.340;9.800;2023-08-01T06:16:42;3.40;;;1.70;;
9364;SDS011;4722;49.340;9.800;2023-08-01T06:19:09;5.30;;;1.98;;
9364;SDS011;4722;49.340;9.800;2023-08-01T06:21:35;3.50;;;1.65;;
9364;SDS011;4722;49.340;9.800;2023-08-01T06:24:01;3.60;;;1.80;;
9364;SDS011;4722;49.340;9.800;2023-08-01T06:26:27;5.03;;;1.50;;
9364;SDS011;4722;49.340;9.800;2023-08-01T06:28:53;2.33;;;1.10;;
9364;SDS011;4722;49.340;9.800;2023-08-01T06:31:19;4.60;;;1.67;;
9364;SDS011;4722;49.340;9.800;2023-08-01T06:33:46;3.85;;;1.65;;
9364;SDS011;4722;49.340;9.800;2023-08-01T06:36:11;3.20;;;1.40;;
9364;SDS011;4722;49.340;9.800;2023-08-01T06:38:38;6.88;;;1.85;;
9364;SDS011;4722;49.340;9.800;2023-08-01T06:41:05;5.28;;;2.20;;
9364;SDS011;4722;49.340;9.800;2023-08-01T06:43:31;8.75;;;1.90;;
9364;SDS011;4722;49.340;9.800;2023-08-01T06:45:57;6.07;;;1.77;;
9364;SDS011;4722;49.340;9.800;2023-08-01T06:48:23;6.47;;;2.15;;
9364;SDS011;4722;49.340;9.800;2023-08-01T06:50:49;6.53;;;1.73;;
9364;SDS011;4722;49.340;9.800;2023-08-01T06:53:16;4.93;;;2.17;;
9364;SDS011;4722;49.340;9.800;2023-08-01T06:55:42;7.15;;;1.98;;
9364;SDS011;4722;49.340;9.800;2023-08-01T06:58:08;5.15;;;1.45;;
9364;SDS011;4722;49.340;9.800;2023-08-01T07:00:34;7.07;;;1.95;;
9364;SDS011;4722;49.340;9.800;2023-08-01T07:03:00;4.50;;;1.77;;
9364;SDS011;4722;49.340;9.800;2023-08-01T07:05:26;5.18;;;1.85;;
9364;SDS011;4722;49.340;9.800;2023-08-01T07:07:52;4.15;;;1.70;;
9364;SDS011;4722;49.340;9.800;2023-08-01T07:10:18;3.60;;;1.60;;
9364;SDS011;4722;49.340;9.800;2023-08-01T07:12:45;4.55;;;1.83;;
9364;SDS011;4722;49.340;9.800;2023-08-01T07:15:11;4.82;;;1.73;;
9364;SDS011;4722;49.340;9.800;2023-08-01T07:17:37;4.20;;;2.00;;
9364;SDS011;4722;49.340;9.800;2023-08-01T07:20:03;6.70;;;2.10;;
9364;SDS011;4722;49.340;9.800;2023-08-01T07:22:29;4.18;;;1.70;;
9364;SDS011;4722;49.340;9.800;2023-08-01T07:24:55;5.43;;;2.05;;
9364;SDS011;4722;49.340;9.800;2023-08-01T07:27:21;3.83;;;1.33;;
9364;SDS011;4722;49.340;9.800;2023-08-01T07:29:47;4.13;;;1.70;;
9364;SDS011;4722;49.340;9.800;2023-08-01T07:32:14;8.63;;;2.80;;
9364;SDS011;4722;49.340;9.800;2023-08-01T07:34:40;6.10;;;1.77;;
9364;SDS011;4722;49.340;9.800;2023-08-01T07:37:06;5.18;;;2.05;;
9364;SDS011;4722;49.340;9.800;2023-08-01T07:39:32;4.72;;;1.42;;
9364;SDS011;4722;49.340;9.800;2023-08-01T07:42:01;4.03;;;1.50;;
9364;SDS011;4722;49.340;9.800;2023-08-01T07:44:28;3.50;;;1.67;;
9364;SDS011;4722;49.340;9.800;2023-08-01T07:46:54;5.57;;;1.52;;
9364;SDS011;4722;49.340;9.800;2023-08-01T07:49:20;6.88;;;1.35;;
9364;SDS011;4722;49.340;9.800;2023-08-01T07:51:46;4.15;;;1.60;;
9364;SDS011;4722;49.340;9.800;2023-08-01T07:54:12;4.35;;;1.80;;
9364;SDS011;4722;49.340;9.800;2023-08-01T07:56:38;3.10;;;1.13;;
9364;SDS011;4722;49.340;9.800;2023-08-01T07:59:04;7.47;;;1.35;;
9364;SDS011;4722;49.340;9.800;2023-08-01T08:01:30;3.97;;;1.60;;
9364;SDS011;4722;49.340;9.800;2023-08-01T08:03:56;2.83;;;1.30;;
9364;SDS011;4722;49.340;9.800;2023-08-01T08:06:22;3.30;;;1.13;;
9364;SDS011;4722;49.340;9.800;2023-08-01T08:08:48;3.20;;;1.27;;
9364;SDS011;4722;49.340;9.800;2023-08-01T08:11:14;3.92;;;1.23;;
9364;SDS011;4722;49.340;9.800;2023-08-01T08:13:41;3.88;;;1.58;;
9364;SDS011;4722;49.340;9.800;2023-08-01T08:16:07;2.67;;;1.17;;
9364;SDS011;4722;49.340;9.800;2023-08-01T08:18:32;2.38;;;1.00;;
9364;SDS011;4722;49.340;9.800;2023-08-01T08:20:58;2.72;;;1.25;;
9364;SDS011;4722;49.340;9.800;2023-08-01T08:23:24;3.75;;;1.45;;
9364;SDS011;4722;49.340;9.800;2023-08-01T08:25:50;4.45;;;1.67;;
9364;SDS011;4722;49.340;9.800;2023-08-01T08:28:26;3.47;;;1.42;;
9364;SDS011;4722;49.340;9.800;2023-08-01T08:30:54;5.07;;;1.92;;
9364;SDS011;4722;49.340;9.800;2023-08-01T08:33:20;4.47;;;1.92;;
9364;SDS011;4722;49.340;9.800;2023-08-01T08:35:46;3.97;;;1.50;;
9364;SDS011;4722;49.340;9.800;2023-08-01T08:38:12;5.32;;;1.45;;
9364;SDS011;4722;49.340;9.800;2023-08-01T08:40:43;4.50;;;1.30;;
9364;SDS011;4722;49.340;9.800;2023-08-01T08:43:33;2.95;;;1.42;;
9364;SDS011;4722;49.340;9.800;2023-08-01T08:46:00;4.45;;;2.03;;
9364;SDS011;4722;49.340;9.800;2023-08-01T08:48:26;3.28;;;1.38;;
9364;SDS011;4722;49.340;9.800;2023-08-01T08:50:54;3.88;;;1.35;;
9364;SDS011;4722;49.340;9.800;2023-08-01T08:53:22;4.65;;;1.42;;
9364;SDS011;4722;49.340;9.800;2023-08-01T08:55:48;3.88;;;1.75;;
9364;SDS011;4722;49.340;9.800;2023-08-01T08:58:15;5.13;;;1.67;;
9364;SDS011;4722;49.340;9.800;2023-08-01T09:00:41;3.60;;;1.50;;
9364;SDS011;4722;49.340;9.800;2023-08-01T09:03:08;7.30;;;1.25;;
9364;SDS011;4722;49.340;9.800;2023-08-01T09:05:45;2.38;;;1.13;;
9364;SDS011;4722;49.340;9.800;2023-08-01T09:08:16;3.20;;;1.27;;
9364;SDS011;4722;49.340;9.800;2023-08-01T09:10:46;3.80;;;1.47;;
9364;SDS011;4722;49.340;9.800;2023-08-01T09:13:13;4.85;;;1.70;;
9364;SDS011;4722;49.340;9.800;2023-08-01T09:15:42;3.53;;;1.00;;
9364;SDS011;4722;49.340;9.800;2023-08-01T09:18:09;1.08;;;0.50;;
9364;SDS011;4722;49.340;9.800;2023-08-01T09:20:42;2.38;;;0.95;;
9364;SDS011;4722;49.340;9.800;2023-08-01T09:23:09;4.00;;;0.98;;
9364;SDS011;4722;49.340;9.800;2023-08-01T09:25:36;1.45;;;0.55;;
9364;SDS011;4722;49.340;9.800;2023-08-01T09:28:02;2.03;;;0.60;;
9364;SDS011;4722;49.340;9.800;2023-08-01T09:30:28;2.47;;;0.77;;
9364;SDS011;4722;49.340;9.800;2023-08-01T09:32:54;1.23;;;0.47;;
9364;SDS011;4722;49.340;9.800;2023-08-01T09:35:20;4.85;;;0.82;;
9364;SDS011;4722;49.340;9.800;2023-08-01T09:37:46;1.15;;;0.60;;
9364;SDS011;4722;49.340;9.800;2023-08-01T09:40:13;2.65;;;0.65;;
9364;SDS011;4722;49.340;9.800;2023-08-01T09:45:06;2.45;;;0.90;;
9364;SDS011;4722;49.340;9.800;2023-08-01T09:47:39;3.45;;;0.40;;
9364;SDS011;4722;49.340;9.800;2023-08-01T09:50:05;1.60;;;0.60;;
9364;SDS011;4722;49.340;9.800;2023-08-01T09:52:32;1.30;;;0.47;;
9364;SDS011;4722;49.340;9.800;2023-08-01T09:54:59;2.28;;;1.10;;
9364;SDS011;4722;49.340;9.800;2023-08-01T09:57:27;2.53;;;0.95;;
9364;SDS011;4722;49.340;9.800;2023-08-01T09:59:56;2.65;;;0.93;;
9364;SDS011;4722;49.340;9.800;2023-08-01T10:02:23;1.15;;;0.60;;
9364;SDS011;4722;49.340;9.800;2023-08-01T10:04:53;1.83;;;0.60;;
9364;SDS011;4722;49.340;9.800;2023-08-01T10:07:23;1.42;;;0.50;;
9364;SDS011;4722;49.340;9.800;2023-08-01T10:09:51;1.35;;;0.63;;
9364;SDS011;4722;49.340;9.800;2023-08-01T10:12:20;3.60;;;0.50;;
9364;SDS011;4722;49.340;9.800;2023-08-01T10:14:48;2.78;;;0.80;;
9364;SDS011;4722;49.340;9.800;2023-08-01T10:17:14;1.05;;;0.40;;
9364;SDS011;4722;49.340;9.800;2023-08-01T10:19:41;1.70;;;0.47;;
9364;SDS011;4722;49.340;9.800;2023-08-01T10:22:08;4.13;;;0.50;;
9364;SDS011;4722;49.340;9.800;2023-08-01T10:24:35;0.88;;;0.32;;
9364;SDS011;4722;49.340;9.800;2023-08-01T10:27:13;1.65;;;0.50;;
9364;SDS011;4722;49.340;9.800;2023-08-01T10:29:40;1.35;;;0.30;;
9364;SDS011;4722;49.340;9.800;2023-08-01T10:32:06;3.92;;;0.50;;
9364;SDS011;4722;49.340;9.800;2023-08-01T10:34:32;3.00;;;0.30;;
9364;SDS011;4722;49.340;9.800;2023-08-01T10:36:58;1.88;;;0.43;;
9364;SDS011;4722;49.340;9.800;2023-08-01T10:39:25;1.83;;;0.22;;
9364;SDS011;4722;49.340;9.800;2023-08-01T10:44:27;2.40;;;0.52;;
9364;SDS011;4722;49.340;9.800;2023-08-01T10:46:57;0.75;;;0.40;;
9364;SDS011;4722;49.340;9.800;2023-08-01T10:49:38;0.55;;;0.30;;
9364;SDS011;4722;49.340;9.800;2023-08-01T10:52:15;1.40;;;0.30;;
9364;SDS011;4722;49.340;9.800;2023-08-01T10:54:43;0.82;;;0.22;;
9364;SDS011;4722;49.340;9.800;2023-08-01T10:57:09;2.05;;;0.25;;
9364;SDS011;4722;49.340;9.800;2023-08-01T10:59:43;0.90;;;0.30;;
9364;SDS011;4722;49.340;9.800;2023-08-01T11:02:09;0.25;;;0.20;;
9364;SDS011;4722;49.340;9.800;2023-08-01T11:04:35;0.47;;;0.15;;
9364;SDS011;4722;49.340;9.800;2023-08-01T11:07:03;1.42;;;0.30;;
9364;SDS011;4722;49.340;9.800;2023-08-01T11:09:29;0.77;;;0.32;;
9364;SDS011;4722;49.340;9.800;2023-08-01T11:11:56;1.55;;;0.40;;
9364;SDS011;4722;49.340;9.800;2023-08-01T11:14:25;0.47;;;0.17;;
9364;SDS011;4722;49.340;9.800;2023-08-01T11:16:53;3.03;;;0.15;;
9364;SDS011;4722;49.340;9.800;2023-08-01T11:19:24;0.22;;;0.10;;
9364;SDS011;4722;49.340;9.800;2023-08-01T11:21:54;0.95;;;0.35;;
9364;SDS011;4722;49.340;9.800;2023-08-01T11:24:25;3.97;;;0.40;;
9364;SDS011;4722;49.340;9.800;2023-08-01T11:26:52;0.60;;;0.20;;
9364;SDS011;4722;49.340;9.800;2023-08-01T11:29:19;0.52;;;0.13;;
9364;SDS011;4722;49.340;9.800;2023-08-01T11:31:55;0.52;;;0.10;;
9364;SDS011;4722;49.340;9.800;2023-08-01T11:34:22;2.53;;;0.20;;
9364;SDS011;4722;49.340;9.800;2023-08-01T11:36:48;1.10;;;0.40;;
9364;SDS011;4722;49.340;9.800;2023-08-01T11:39:15;0.43;;;0.20;;
9364;SDS011;4722;49.340;9.800;2023-08-01T11:41:42;0.80;;;0.30;;
9364;SDS011;4722;49.340;9.800;2023-08-01T11:44:08;1.17;;;0.40;;
9364;SDS011;4722;49.340;9.800;2023-08-01T11:46:36;1.08;;;0.60;;
9364;SDS011;4722;49.340;9.800;2023-08-01T11:49:02;0.60;;;0.20;;
9364;SDS011;4722;49.340;9.800;2023-08-01T11:51:28;1.95;;;0.60;;
9364;SDS011;4722;49.340;9.800;2023-08-01T11:53:58;1.75;;;0.20;;
9364;SDS011;4722;49.340;9.800;2023-08-01T11:56:27;0.63;;;0.38;;
9364;SDS011;4722;49.340;9.800;2023-08-01T11:58:53;0.93;;;0.40;;
9364;SDS011;4722;49.340;9.800;2023-08-01T12:01:19;0.57;;;0.25;;
9364;SDS011;4722;49.340;9.800;2023-08-01T12:06:14;0.77;;;0.30;;
9364;SDS011;4722;49.340;9.800;2023-08-01T12:08:41;1.38;;;0.55;;
9364;SDS011;4722;49.340;9.800;2023-08-01T12:14:05;1.13;;;0.20;;
9364;SDS011;4722;49.340;9.800;2023-08-01T12:16:36;0.75;;;0.20;;
9364;SDS011;4722;49.340;9.800;2023-08-01T12:19:07;0.60;;;0.20;;
9364;SDS011;4722;49.340;9.800;2023-08-01T12:21:33;0.65;;;0.22;;
9364;SDS011;4722;49.340;9.800;2023-08-01T12:24:01;0.77;;;0.30;;
9364;SDS011;4722;49.340;9.800;2023-08-01T12:26:27;0.90;;;0.40;;
9364;SDS011;4722;49.340;9.800;2023-08-01T12:28:53;1.50;;;0.40;;
9364;SDS011;4722;49.340;9.800;2023-08-01T12:31:19;0.75;;;0.30;;
9364;SDS011;4722;49.340;9.800;2023-08-01T12:33:46;1.58;;;0.63;;
9364;SDS011;4722;49.340;9.800;2023-08-01T12:36:12;0.63;;;0.30;;
9364;SDS011;4722;49.340;9.800;2023-08-01T12:38:38;1.42;;;0.38;;
9364;SDS011;4722;49.340;9.800;2023-08-01T12:41:04;0.95;;;0.40;;
9364;SDS011;4722;49.340;9.800;2023-08-01T12:43:30;1.65;;;0.30;;
9364;SDS011;4722;49.340;9.800;2023-08-01T12:45:56;1.83;;;0.57;;
9364;SDS011;4722;49.340;9.800;2023-08-01T12:48:23;0.98;;;0.30;;
9364;SDS011;4722;49.340;9.800;2023-08-01T12:50:49;2.65;;;0.50;;
9364;SDS011;4722;49.340;9.800;2023-08-01T12:53:15;0.77;;;0.38;;
9364;SDS011;4722;49.340;9.800;2023-08-01T12:55:44;12.02;;;3.25;;
9364;SDS011;4722;49.340;9.800;2023-08-01T12:58:11;23.55;;;6.22;;
9364;SDS011;4722;49.340;9.800;2023-08-01T13:00:37;19.50;;;6.10;;
9364;SDS011;4722;49.340;9.800;2023-08-01T13:03:03;1.83;;;1.00;;
9364;SDS011;4722;49.340;9.800;2023-08-01T13:05:29;5.90;;;0.60;;
9364;SDS011;4722;49.340;9.800;2023-08-01T13:07:54;2.65;;;1.17;;
9364;SDS011;4722;49.340;9.800;2023-08-01T13:10:20;1.77;;;0.57;;
9364;SDS011;4722;49.340;9.800;2023-08-01T13:12:46;0.43;;;0.20;;
9364;SDS011;4722;49.340;9.800;2023-08-01T13:15:18;0.30;;;0.20;;
9364;SDS011;4722;49.340;9.800;2023-08-01T13:17:44;1.00;;;0.73;;
9364;SDS011;4722;49.340;9.800;2023-08-01T13:20:10;0.60;;;0.22;;
9364;SDS011;4722;49.340;9.800;2023-08-01T13:22:35;1.95;;;0.50;;
9364;SDS011;4722;49.340;9.800;2023-08-01T13:25:03;1.65;;;0.35;;
9364;SDS011;4722;49.340;9.800;2023-08-01T13:27:31;3.17;;;0.55;;
9364;SDS011;4722;49.340;9.800;2023-08-01T13:29:57;0.32;;;0.25;;
9364;SDS011;4722;49.340;9.800;2023-08-01T13:32:23;1.88;;;0.60;;
9364;SDS011;4722;49.340;9.800;2023-08-01T13:34:48;2.72;;;0.82;;
9364;SDS011;4722;49.340;9.800;2023-08-01T13:37:14;0.93;;;0.45;;
9364;SDS011;4722;49.340;9.800;2023-08-01T13:39:40;1.23;;;0.40;;
9364;SDS011;4722;49.340;9.800;2023-08-01T13:42:06;1.52;;;0.50;;
9364;SDS011;4722;49.340;9.800;2023-08-01T13:44:31;1.55;;;0.47;;
9364;SDS011;4722;49.340;9.800;2023-08-01T13:46:58;2.08;;;0.90;;
9364;SDS011;4722;49.340;9.800;2023-08-01T13:49:23;3.13;;;0.88;;
9364;SDS011;4722;49.340;9.800;2023-08-01T13:51:49;0.88;;;0.32;;
9364;SDS011;4722;49.340;9.800;2023-08-01T13:54:15;2.60;;;0.45;;
9364;SDS011;4722;49.340;9.800;2023-08-01T13:56:40;3.30;;;0.68;;
9364;SDS011;4722;49.340;9.800;2023-08-01T13:59:06;0.47;;;0.30;;
9364;SDS011;4722;49.340;9.800;2023-08-01T14:01:33;0.88;;;0.40;;
9364;SDS011;4722;49.340;9.800;2023-08-01T14:04:00;0.80;;;0.30;;
9364;SDS011;4722;49.340;9.800;2023-08-01T14:06:26;3.50;;;0.43;;
9364;SDS011;4722;49.340;9.800;2023-08-01T14:08:52;3.30;;;0.60;;
9364;SDS011;4722;49.340;9.800;2023-08-01T14:11:18;2.83;;;0.63;;
9364;SDS011;4722;49.340;9.800;2023-08-01T14:13:44;1.45;;;0.40;;
9364;SDS011;4722;49.340;9.800;2023-08-01T14:16:10;1.33;;;0.52;;
9364;SDS011;4722;49.340;9.800;2023-08-01T14:18:35;1.52;;;0.47;;
9364;SDS011;4722;49.340;9.800;2023-08-01T14:21:01;1.55;;;0.55;;
9364;SDS011;4722;49.340;9.800;2023-08-01T14:23:27;1.45;;;0.60;;
9364;SDS011;4722;49.340;9.800;2023-08-01T14:25:52;1.70;;;0.60;;
9364;SDS011;4722;49.340;9.800;2023-08-01T14:28:18;0.93;;;0.40;;
9364;SDS011;4722;49.340;9.800;2023-08-01T14:30:44;4.45;;;0.80;;
9364;SDS011;4722;49.340;9.800;2023-08-01T14:33:10;1.25;;;0.50;;
9364;SDS011;4722;49.340;9.800;2023-08-01T14:35:37;1.40;;;0.30;;
9364;SDS011;4722;49.340;9.800;2023-08-01T14:38:03;1.42;;;0.35;;
9364;SDS011;4722;49.340;9.800;2023-08-01T14:40:30;2.03;;;0.73;;
9364;SDS011;4722;49.340;9.800;2023-08-01T14:42:56;3.33;;;0.40;;
9364;SDS011;4722;49.340;9.800;2023-08-01T14:45:22;1.25;;;0.40;;
9364;SDS011;4722;49.340;9.800;2023-08-01T14:47:48;1.15;;;0.60;;
9364;SDS011;4722;49.340;9.800;2023-08-01T14:50:14;1.80;;;0.35;;
9364;SDS011;4722;49.340;9.800;2023-08-01T14:52:40;6.47;;;0.45;;
9364;SDS011;4722;49.340;9.800;2023-08-01T14:55:08;0.65;;;0.38;;
9364;SDS011;4722;49.340;9.800;2023-08-01T14:57:34;1.85;;;0.30;;
9364;SDS011;4722;49.340;9.800;2023-08-01T15:00:00;1.17;;;0.50;;
9364;SDS011;4722;49.340;9.800;2023-08-01T15:02:27;2.97;;;0.60;;
9364;SDS011;4722;49.340;9.800;2023-08-01T15:04:53;0.68;;;0.30;;
9364;SDS011;4722;49.340;9.800;2023-08-01T15:07:23;1.80;;;0.40;;
9364;SDS011;4722;49.340;9.800;2023-08-01T15:09:50;0.80;;;0.40;;
9364;SDS011;4722;49.340;9.800;2023-08-01T15:12:16;1.90;;;0.40;;
9364;SDS011;4722;49.340;9.800;2023-08-01T15:14:42;1.50;;;0.55;;
9364;SDS011;4722;49.340;9.800;2023-08-01T15:17:08;6.60;;;0.63;;
9364;SDS011;4722;49.340;9.800;2023-08-01T15:19:34;1.38;;;0.57;;
9364;SDS011;4722;49.340;9.800;2023-08-01T15:22:00;2.75;;;0.32;;
9364;SDS011;4722;49.340;9.800;2023-08-01T15:24:26;1.38;;;0.40;;
9364;SDS011;4722;49.340;9.800;2023-08-01T15:26:52;1.85;;;0.20;;